CYAS

Kangirsuk Airport

ICAO Code CYAS
IATA Code YKG
Name Kangirsuk Airport
Location Kangirsuk, Quebec, CA
Elevation 406 Feet / 123.7 Meters
Latitude 60.02722222
Longitude -69.99916667
METAR CYAS 182100Z 31006KT 15SM BKN120 21/12 A2980 RMK AC7 LAST STFD OBS NEXT 191200UTC SLP099 DENSITY ALT 1400FT
Extra information Display NOTAMS
Display Charts
Runway Length Width Surface Elevation
03 3521 ft 100 ft GRAVEL 342 ft
21 3521 ft 100 ft GRAVEL 406 ft